createdAt,value
2022-09-28T00:00:32.110Z,9.18
2022-09-28T00:01:32.178Z,9.28
2022-09-28T00:02:32.216Z,9.22
2022-09-28T00:03:32.105Z,9.22
2022-09-28T00:04:32.093Z,9.23
2022-09-28T00:05:32.054Z,9.23
2022-09-28T00:06:32.048Z,9.19
2022-09-28T00:07:32.043Z,9.26
2022-09-28T00:08:32.022Z,9.22
2022-09-28T00:09:32.027Z,9.18
2022-09-28T00:10:32.000Z,9.22
2022-09-28T00:11:31.990Z,9.18
2022-09-28T00:12:31.981Z,9.22
2022-09-28T00:13:31.976Z,9.26
2022-09-28T00:14:31.968Z,9.26
2022-09-28T00:15:31.956Z,9.18
2022-09-28T00:16:31.987Z,9.26
2022-09-28T00:17:31.917Z,9.29
2022-09-28T00:18:31.908Z,9.32
2022-09-28T00:19:31.937Z,9.34
2022-09-28T00:20:31.913Z,9.31
2022-09-28T00:21:31.895Z,9.25
2022-09-28T00:22:31.867Z,9.31
2022-09-28T00:23:31.856Z,9.32
2022-09-28T00:24:31.919Z,9.37
2022-09-28T00:25:31.831Z,9.39
2022-09-28T00:26:31.821Z,9.37
2022-09-28T00:27:31.812Z,9.34
2022-09-28T00:28:31.819Z,9.48
2022-09-28T00:29:31.825Z,9.43
2022-09-28T00:30:31.794Z,9.47
2022-09-28T00:31:31.882Z,9.47
2022-09-28T00:32:31.759Z,9.50
2022-09-28T00:33:31.742Z,9.47
2022-09-28T00:34:31.739Z,9.40
2022-09-28T00:35:31.744Z,9.43
2022-09-28T00:36:31.738Z,9.46
2022-09-28T00:37:31.699Z,9.44
2022-09-28T00:38:31.707Z,9.48
2022-09-28T00:39:31.755Z,9.40
2022-09-28T00:40:31.716Z,9.43
2022-09-28T00:41:31.672Z,9.36
2022-09-28T00:42:31.653Z,9.40
2022-09-28T00:43:31.633Z,9.37
2022-09-28T00:44:31.628Z,9.40
2022-09-28T00:45:31.718Z,9.41
2022-09-28T00:46:31.601Z,9.44
2022-09-28T00:47:31.592Z,9.41
2022-09-28T00:48:31.578Z,9.41
2022-09-28T00:49:31.568Z,9.40
2022-09-28T00:50:31.578Z,9.40
2022-09-28T00:51:31.557Z,9.37
2022-09-28T00:52:31.558Z,9.34
2022-09-28T00:53:31.526Z,9.43
2022-09-28T00:54:31.517Z,9.44
2022-09-28T00:55:31.503Z,9.43
2022-09-28T00:56:31.504Z,9.40
2022-09-28T00:57:31.488Z,9.43
2022-09-28T00:58:31.468Z,9.47
2022-09-28T00:59:31.455Z,9.47
2022-09-28T01:00:31.512Z,9.58
2022-09-28T01:01:31.447Z,9.50
2022-09-28T01:02:31.468Z,9.46
2022-09-28T01:03:31.434Z,9.55
2022-09-28T01:04:31.404Z,9.59
2022-09-28T01:05:31.388Z,9.54
2022-09-28T01:06:31.408Z,9.61
2022-09-28T01:07:31.384Z,9.59
2022-09-28T01:08:31.380Z,9.54
2022-09-28T01:09:31.357Z,9.61
2022-09-28T01:10:31.332Z,9.56
2022-09-28T01:11:31.324Z,9.40
2022-09-28T01:12:31.327Z,9.46
2022-09-28T01:13:31.298Z,9.47
2022-09-28T01:14:31.291Z,9.48
2022-09-28T01:15:31.279Z,9.48
2022-09-28T01:16:31.353Z,9.48
2022-09-28T01:17:31.269Z,9.44
2022-09-28T01:18:31.260Z,9.48
2022-09-28T01:19:31.232Z,9.40
2022-09-28T01:20:31.225Z,9.40
2022-09-28T01:21:31.212Z,9.41
2022-09-28T01:22:31.209Z,9.51
2022-09-28T01:23:31.211Z,9.50
2022-09-28T01:24:31.203Z,9.43
2022-09-28T01:25:31.166Z,9.36
2022-09-28T01:26:31.157Z,9.47
2022-09-28T01:27:31.145Z,9.37
2022-09-28T01:28:31.148Z,9.29
2022-09-28T01:29:31.136Z,9.40
2022-09-28T01:30:31.118Z,9.31
2022-09-28T01:31:31.176Z,9.25
2022-09-28T01:32:31.106Z,9.26
2022-09-28T01:33:31.077Z,9.25
2022-09-28T01:34:31.083Z,9.22
2022-09-28T01:35:31.057Z,9.19
2022-09-28T01:36:31.046Z,9.22
2022-09-28T01:37:31.045Z,9.16
2022-09-28T01:38:31.023Z,9.21
2022-09-28T01:39:31.010Z,9.19
2022-09-28T01:40:31.057Z,9.25
2022-09-28T01:41:30.992Z,9.22
2022-09-28T01:42:31.011Z,9.25
2022-09-28T01:43:30.965Z,9.29
2022-09-28T01:44:30.961Z,9.26
2022-09-28T01:45:31.028Z,9.31
2022-09-28T01:46:30.949Z,9.29
2022-09-28T01:47:30.923Z,9.29
2022-09-28T01:48:30.944Z,9.25
2022-09-28T01:49:30.905Z,9.25
2022-09-28T01:50:30.895Z,9.31
2022-09-28T01:51:30.879Z,9.23
2022-09-28T01:52:30.886Z,9.26
2022-09-28T01:53:30.860Z,9.23
2022-09-28T01:54:30.868Z,9.23
2022-09-28T01:55:30.834Z,9.32
2022-09-28T01:56:30.853Z,9.25
2022-09-28T01:57:30.815Z,9.22
2022-09-28T01:58:30.825Z,9.32
2022-09-28T01:59:30.803Z,9.23
2022-09-28T02:00:30.832Z,9.37
2022-09-28T02:01:30.768Z,9.23
2022-09-28T02:02:30.843Z,9.34
2022-09-28T02:03:30.773Z,9.34
2022-09-28T02:04:30.909Z,9.36
2022-09-28T02:05:30.729Z,9.31
2022-09-28T02:06:30.716Z,9.26
2022-09-28T02:07:30.702Z,9.40
2022-09-28T02:08:30.716Z,9.43
2022-09-28T02:09:33.777Z,9.32
2022-09-28T02:10:30.686Z,9.37
2022-09-28T02:11:30.663Z,9.23
2022-09-28T02:12:30.670Z,9.22
2022-09-28T02:13:30.637Z,9.28
2022-09-28T02:14:30.641Z,9.26
2022-09-28T02:15:30.637Z,9.31
2022-09-28T02:16:30.716Z,9.32
2022-09-28T02:17:30.622Z,9.22
2022-09-28T02:18:30.592Z,9.29
2022-09-28T02:19:30.572Z,9.28
2022-09-28T02:20:30.561Z,9.26
2022-09-28T02:21:30.561Z,9.29
2022-09-28T02:22:30.537Z,9.37
2022-09-28T02:23:30.524Z,9.36
2022-09-28T02:24:30.521Z,9.28
2022-09-28T02:25:30.499Z,9.23
2022-09-28T02:26:30.507Z,9.31
2022-09-28T02:27:30.479Z,9.28
2022-09-28T02:28:30.501Z,9.34
2022-09-28T02:29:30.460Z,9.28
2022-09-28T02:30:30.455Z,9.25
2022-09-28T02:31:30.514Z,9.31
2022-09-28T02:32:30.423Z,9.25
2022-09-28T02:33:30.415Z,9.31
2022-09-28T02:34:30.402Z,9.31
2022-09-28T02:35:30.408Z,9.40
2022-09-28T02:36:30.382Z,9.36
2022-09-28T02:37:30.403Z,9.44
2022-09-28T02:38:30.358Z,9.39
2022-09-28T02:39:30.350Z,9.31
2022-09-28T02:40:30.377Z,9.34
2022-09-28T02:41:30.336Z,9.28
2022-09-28T02:42:30.320Z,9.21
2022-09-28T02:43:30.318Z,9.21
2022-09-28T02:44:30.312Z,9.18
2022-09-28T02:45:30.349Z,9.23
2022-09-28T02:46:30.268Z,9.22
2022-09-28T02:47:30.270Z,9.34
2022-09-28T02:48:43.067Z,9.29
2022-09-28T02:49:31.464Z,9.23
2022-09-28T02:50:30.223Z,9.21
2022-09-28T02:51:30.215Z,9.16
2022-09-28T02:52:30.204Z,9.08
2022-09-28T02:53:30.219Z,9.11
2022-09-28T02:54:30.179Z,9.19
2022-09-28T02:55:30.176Z,9.13
2022-09-28T02:56:30.162Z,9.11
2022-09-28T02:57:30.151Z,9.13
2022-09-28T02:58:30.160Z,9.11
2022-09-28T02:59:30.141Z,9.10
2022-09-28T03:00:30.134Z,9.08
2022-09-28T03:01:30.104Z,9.19
2022-09-28T03:02:30.163Z,9.00
2022-09-28T03:03:30.088Z,9.04
2022-09-28T03:04:30.118Z,9.10
2022-09-28T03:05:30.063Z,9.18
2022-09-28T03:06:30.053Z,9.10
2022-09-28T03:07:30.037Z,9.04
2022-09-28T03:08:30.033Z,9.18
2022-09-28T03:09:30.025Z,9.03
2022-09-28T03:10:30.032Z,9.02
2022-09-28T03:11:29.995Z,9.06
2022-09-28T03:12:30.005Z,9.06
2022-09-28T03:13:29.993Z,9.10
2022-09-28T03:14:29.958Z,9.08
2022-09-28T03:15:29.967Z,9.06
2022-09-28T03:16:30.028Z,9.10
2022-09-28T03:17:29.941Z,9.10
2022-09-28T03:18:29.915Z,9.06
2022-09-28T03:19:29.926Z,9.02
2022-09-28T03:20:29.893Z,9.08
2022-09-28T03:21:29.884Z,9.08
2022-09-28T03:22:29.876Z,9.03
2022-09-28T03:23:29.862Z,9.04
2022-09-28T03:24:29.847Z,9.18
2022-09-28T03:25:29.850Z,9.19
2022-09-28T03:26:29.828Z,9.13
2022-09-28T03:27:29.816Z,9.18
2022-09-28T03:28:29.816Z,9.11
2022-09-28T03:29:29.817Z,9.18
2022-09-28T03:30:29.779Z,9.16
2022-09-28T03:31:29.866Z,9.19
2022-09-28T03:32:29.815Z,9.16
2022-09-28T03:33:29.753Z,9.14
2022-09-28T03:34:29.749Z,9.19
2022-09-28T03:35:29.755Z,9.21
2022-09-28T03:36:29.726Z,9.21
2022-09-28T03:37:29.703Z,9.16
2022-09-28T03:38:29.691Z,9.21
2022-09-28T03:39:29.690Z,9.25
2022-09-28T03:40:29.810Z,9.26
2022-09-28T03:41:29.672Z,9.21
2022-09-28T03:42:29.648Z,9.32
2022-09-28T03:43:29.641Z,9.23
2022-09-28T03:44:29.662Z,9.22
2022-09-28T03:45:29.703Z,9.22
2022-09-28T03:46:29.605Z,9.21
2022-09-28T03:47:29.598Z,9.25
2022-09-28T03:48:32.329Z,9.14
2022-09-28T03:49:29.594Z,9.23
2022-09-28T03:50:29.579Z,9.22
2022-09-28T03:51:29.584Z,9.21
2022-09-28T03:52:29.552Z,9.22
2022-09-28T03:53:29.568Z,9.21
2022-09-28T03:54:29.541Z,9.23
2022-09-28T03:55:29.518Z,9.19
2022-09-28T03:56:29.505Z,9.26
2022-09-28T03:57:29.485Z,9.19
2022-09-28T03:58:29.476Z,9.16
2022-09-28T03:59:29.474Z,9.21
2022-09-28T04:00:29.449Z,9.13
2022-09-28T04:01:29.550Z,9.21
2022-09-28T04:02:29.535Z,9.10
2022-09-28T04:03:29.415Z,9.19
2022-09-28T04:04:29.428Z,9.13
2022-09-28T04:05:29.394Z,9.14
2022-09-28T04:06:29.387Z,9.18
2022-09-28T04:07:31.253Z,9.06
2022-09-28T04:08:29.357Z,9.06
2022-09-28T04:09:29.356Z,9.02
2022-09-28T04:10:29.337Z,9.14
2022-09-28T04:11:38.504Z,9.10
2022-09-28T04:12:30.327Z,9.04
2022-09-28T04:13:29.303Z,9.06
2022-09-28T04:14:29.291Z,9.13
2022-09-28T04:15:29.284Z,9.04
2022-09-28T04:16:29.359Z,9.06
2022-09-28T04:17:29.278Z,9.13
2022-09-28T04:18:29.244Z,9.08
2022-09-28T04:19:29.262Z,8.95
2022-09-28T04:20:29.246Z,9.08
2022-09-28T04:21:29.217Z,9.04
2022-09-28T04:22:29.213Z,9.06
2022-09-28T04:23:29.219Z,9.08
2022-09-28T04:24:29.178Z,9.04
2022-09-28T04:25:29.182Z,9.02
2022-09-28T04:26:29.156Z,9.03
2022-09-28T04:27:29.149Z,9.06
2022-09-28T04:28:29.142Z,9.04
2022-09-28T04:29:29.150Z,9.02
2022-09-28T04:30:29.125Z,9.06
2022-09-28T04:31:29.187Z,9.02
2022-09-28T04:32:29.088Z,8.97
2022-09-28T04:33:29.080Z,8.94
2022-09-28T04:34:34.542Z,9.08
2022-09-28T04:35:30.094Z,9.04
2022-09-28T04:36:29.065Z,9.04
2022-09-28T04:37:29.046Z,9.03
2022-09-28T04:38:48.726Z,8.99
2022-09-28T04:39:30.015Z,9.02
2022-09-28T04:40:29.040Z,8.94
2022-09-28T04:41:29.011Z,8.94
2022-09-28T04:42:28.981Z,8.97
2022-09-28T04:43:28.970Z,8.99
2022-09-28T04:44:28.963Z,9.00
2022-09-28T04:45:29.052Z,8.84
2022-09-28T04:46:28.955Z,9.02
2022-09-28T04:47:28.926Z,8.99
2022-09-28T04:48:28.938Z,9.00
2022-09-28T04:49:28.904Z,9.06
2022-09-28T04:50:28.889Z,9.04
2022-09-28T04:51:28.881Z,9.04
2022-09-28T04:52:28.899Z,9.04
2022-09-28T04:53:28.873Z,9.11
2022-09-28T04:54:28.844Z,9.02
2022-09-28T04:55:28.840Z,9.08
2022-09-28T04:56:28.852Z,9.04
2022-09-28T04:57:28.819Z,9.08
2022-09-28T04:58:28.797Z,9.06
2022-09-28T04:59:28.802Z,9.03
2022-09-28T05:00:28.789Z,9.08
2022-09-28T05:01:28.806Z,8.97
2022-09-28T05:02:28.832Z,9.06
2022-09-28T05:03:28.750Z,9.03
2022-09-28T05:04:28.733Z,8.94
2022-09-28T05:05:28.738Z,9.04
2022-09-28T05:06:28.714Z,9.00
2022-09-28T05:07:28.703Z,9.03
2022-09-28T05:08:28.735Z,9.04
2022-09-28T05:09:28.679Z,8.97
2022-09-28T05:10:28.665Z,9.00
2022-09-28T05:11:28.677Z,8.94
2022-09-28T05:12:28.641Z,8.89
2022-09-28T05:13:28.635Z,9.03
2022-09-28T05:14:28.633Z,9.04
2022-09-28T05:15:28.621Z,9.06
2022-09-28T05:16:28.711Z,9.04
2022-09-28T05:17:28.590Z,9.03
2022-09-28T05:18:28.586Z,9.06
2022-09-28T05:19:28.566Z,9.04
2022-09-28T05:20:28.565Z,9.16
2022-09-28T05:21:28.544Z,9.10
2022-09-28T05:22:28.529Z,9.19
2022-09-28T05:23:28.527Z,9.16
2022-09-28T05:24:28.549Z,9.23
2022-09-28T05:25:28.499Z,9.23
2022-09-28T05:26:28.510Z,9.22
2022-09-28T05:27:28.479Z,9.13
2022-09-28T05:28:28.463Z,9.18
2022-09-28T05:29:32.030Z,9.22
2022-09-28T05:30:28.440Z,9.21
2022-09-28T05:31:28.524Z,9.36
2022-09-28T05:32:28.418Z,9.21
2022-09-28T05:33:28.410Z,9.26
2022-09-28T05:34:28.397Z,9.23
2022-09-28T05:35:28.397Z,9.26
2022-09-28T05:36:28.374Z,9.29
2022-09-28T05:37:28.380Z,9.40
2022-09-28T05:38:28.361Z,9.25
2022-09-28T05:39:28.342Z,9.37
2022-09-28T05:40:28.424Z,9.31
2022-09-28T05:41:28.321Z,9.29
2022-09-28T05:42:28.314Z,9.31
2022-09-28T05:43:28.298Z,9.31
2022-09-28T05:44:28.289Z,9.28
2022-09-28T05:45:28.378Z,9.34
2022-09-28T05:46:28.335Z,9.37
2022-09-28T05:47:28.253Z,9.36
2022-09-28T05:48:28.262Z,9.31
2022-09-28T05:49:28.234Z,9.26
2022-09-28T05:50:28.216Z,9.26
2022-09-28T05:51:28.221Z,9.32
2022-09-28T05:52:28.231Z,9.22
2022-09-28T05:53:28.194Z,9.29
2022-09-28T05:54:28.179Z,9.29
2022-09-28T05:55:28.208Z,9.16
2022-09-28T05:56:28.186Z,9.10
2022-09-28T05:57:28.156Z,9.13
2022-09-28T05:58:28.130Z,9.08
2022-09-28T05:59:28.126Z,9.06
2022-09-28T06:00:28.105Z,9.02
2022-09-28T06:01:28.195Z,9.02
2022-09-28T06:02:28.234Z,9.18
2022-09-28T06:03:28.075Z,9.10
2022-09-28T06:04:28.063Z,9.18
2022-09-28T06:05:28.068Z,9.08
2022-09-28T06:06:28.044Z,9.19
2022-09-28T06:07:28.034Z,9.23
2022-09-28T06:08:28.042Z,9.22
2022-09-28T06:09:28.008Z,9.21
2022-09-28T06:10:27.994Z,9.21
2022-09-28T06:11:27.990Z,9.21
2022-09-28T06:12:28.075Z,9.23
2022-09-28T06:13:27.982Z,9.25
2022-09-28T06:14:27.959Z,9.11
2022-09-28T06:15:27.950Z,9.13
2022-09-28T06:16:27.974Z,9.16
2022-09-28T06:17:27.928Z,9.18
2022-09-28T06:18:27.926Z,9.13
2022-09-28T06:19:27.904Z,9.21
2022-09-28T06:20:27.953Z,9.21
2022-09-28T06:21:27.887Z,9.22
2022-09-28T06:22:27.864Z,9.29
2022-09-28T06:23:27.869Z,9.23
2022-09-28T06:24:27.856Z,9.28
2022-09-28T06:25:27.830Z,9.36
2022-09-28T06:26:27.820Z,9.23
2022-09-28T06:27:27.810Z,9.32
2022-09-28T06:28:27.842Z,9.22
2022-09-28T06:29:27.814Z,9.10
2022-09-28T06:30:27.837Z,9.10
2022-09-28T06:31:27.778Z,9.03
2022-09-28T06:32:27.751Z,8.97
2022-09-28T06:33:27.757Z,8.85
2022-09-28T06:34:27.754Z,8.88
2022-09-28T06:35:27.722Z,8.89
2022-09-28T06:36:27.706Z,8.85
2022-09-28T06:37:27.699Z,8.94
2022-09-28T06:38:27.691Z,8.97
2022-09-28T06:39:27.678Z,9.02
2022-09-28T06:40:27.762Z,8.97
2022-09-28T06:41:27.679Z,9.00
2022-09-28T06:42:27.648Z,9.08
2022-09-28T06:43:32.109Z,9.14
2022-09-28T06:44:28.643Z,9.13
2022-09-28T06:45:27.630Z,9.18
2022-09-28T06:46:27.692Z,9.22
2022-09-28T06:47:27.583Z,9.26
2022-09-28T06:48:27.592Z,9.31
2022-09-28T06:49:27.561Z,9.31
2022-09-28T06:50:27.607Z,9.25
2022-09-28T06:51:27.561Z,9.29
2022-09-28T06:52:27.543Z,9.16
2022-09-28T06:53:27.516Z,9.08
2022-09-28T06:54:27.519Z,9.13
2022-09-28T06:55:27.495Z,9.02
2022-09-28T06:56:32.581Z,8.99
2022-09-28T06:57:28.471Z,9.13
2022-09-28T06:58:27.465Z,9.13
2022-09-28T06:59:27.456Z,9.19
2022-09-28T07:00:27.569Z,9.04
2022-09-28T07:01:27.522Z,9.10
2022-09-28T07:02:27.459Z,9.10
2022-09-28T07:03:27.411Z,9.08
2022-09-28T07:04:27.397Z,9.08
2022-09-28T07:05:27.392Z,9.08
2022-09-28T07:06:27.401Z,9.11
2022-09-28T07:07:27.363Z,9.18
2022-09-28T07:08:27.353Z,9.29
2022-09-28T07:09:32.649Z,9.26
2022-09-28T07:10:28.333Z,9.36
2022-09-28T07:11:27.342Z,9.32
2022-09-28T07:12:27.308Z,9.31
2022-09-28T07:13:48.468Z,9.37
2022-09-28T07:14:46.060Z,9.29
2022-09-28T07:15:28.272Z,9.29
2022-09-28T07:16:36.782Z,9.29
2022-09-28T07:17:28.339Z,9.23
2022-09-28T07:18:27.270Z,9.25
2022-09-28T07:19:27.241Z,9.31
2022-09-28T07:20:27.218Z,9.28
2022-09-28T07:21:30.509Z,9.36
2022-09-28T07:22:41.157Z,9.28
2022-09-28T07:23:28.245Z,9.43
2022-09-28T07:24:27.180Z,9.46
2022-09-28T07:25:27.167Z,9.39
2022-09-28T07:26:27.162Z,9.32
2022-09-28T07:27:29.042Z,9.39
2022-09-28T07:28:27.153Z,9.48
2022-09-28T07:29:27.122Z,9.44
2022-09-28T07:30:27.202Z,9.48
2022-09-28T07:31:27.112Z,9.48
2022-09-28T07:32:27.149Z,9.54
2022-09-28T07:33:27.103Z,9.55
2022-09-28T07:34:27.063Z,9.51
2022-09-28T07:35:27.051Z,9.62
2022-09-28T07:36:27.089Z,9.61
2022-09-28T07:37:27.038Z,9.56
2022-09-28T07:38:27.020Z,9.55
2022-09-28T07:39:27.044Z,9.56
2022-09-28T07:40:27.072Z,9.68
2022-09-28T07:41:26.988Z,9.68
2022-09-28T07:42:26.981Z,9.68
2022-09-28T07:43:26.979Z,9.77
2022-09-28T07:44:26.956Z,9.74
2022-09-28T07:45:26.942Z,9.66
2022-09-28T07:46:27.029Z,9.68
2022-09-28T07:47:29.763Z,9.73
2022-09-28T07:48:27.953Z,9.69
2022-09-28T07:49:26.902Z,9.65
2022-09-28T07:50:26.886Z,9.83
2022-09-28T07:51:26.875Z,9.80
2022-09-28T07:52:26.866Z,9.84
2022-09-28T07:53:26.877Z,9.99
2022-09-28T07:54:26.849Z,9.97
2022-09-28T07:55:26.829Z,10.04
2022-09-28T07:56:26.821Z,10.01
2022-09-28T07:57:26.814Z,9.95
2022-09-28T07:58:26.800Z,9.89
2022-09-28T07:59:26.854Z,9.86
2022-09-28T08:00:29.795Z,9.84
2022-09-28T08:01:27.993Z,9.94
2022-09-28T08:02:26.817Z,10.02
2022-09-28T08:03:26.752Z,9.97
2022-09-28T08:04:26.767Z,10.09
2022-09-28T08:05:26.731Z,10.10
2022-09-28T08:06:26.714Z,10.09
2022-09-28T08:07:33.773Z,10.17
2022-09-28T08:08:26.713Z,10.20
2022-09-28T08:09:26.674Z,10.19
2022-09-28T08:10:26.682Z,10.19
2022-09-28T08:11:26.669Z,10.15
2022-09-28T08:12:26.664Z,10.20
2022-09-28T08:13:27.228Z,10.17
2022-09-28T08:14:26.628Z,10.30
2022-09-28T08:15:26.608Z,10.34
2022-09-28T08:16:26.691Z,10.38
2022-09-28T08:17:26.620Z,10.40
2022-09-28T08:18:26.600Z,10.44
2022-09-28T08:19:26.561Z,10.51
2022-09-28T08:20:26.573Z,10.57
2022-09-28T08:21:26.571Z,10.68
2022-09-28T08:22:26.550Z,10.76
2022-09-28T08:23:26.526Z,10.61
2022-09-28T08:24:26.545Z,10.64
2022-09-28T08:25:26.498Z,10.75
2022-09-28T08:26:27.162Z,10.75
2022-09-28T08:27:26.492Z,10.81
2022-09-28T08:28:26.470Z,10.76
2022-09-28T08:29:26.454Z,10.79
2022-09-28T08:30:26.513Z,10.79
2022-09-28T08:31:26.436Z,10.81
2022-09-28T08:32:26.437Z,10.74
2022-09-28T08:33:26.412Z,10.68
2022-09-28T08:34:26.401Z,10.69
2022-09-28T08:35:26.434Z,10.68
2022-09-28T08:36:26.415Z,10.56
2022-09-28T08:37:26.378Z,10.54
2022-09-28T08:38:26.365Z,10.51
2022-09-28T08:39:26.341Z,10.53
2022-09-28T08:40:26.410Z,10.48
2022-09-28T08:41:26.330Z,10.49
2022-09-28T08:42:26.314Z,10.59
2022-09-28T08:43:26.308Z,10.57
2022-09-28T08:44:26.295Z,10.42
2022-09-28T08:45:26.275Z,10.42
2022-09-28T08:46:27.152Z,10.41
2022-09-28T08:47:26.252Z,10.41
2022-09-28T08:48:26.274Z,10.37
2022-09-28T08:49:26.676Z,10.41
2022-09-28T08:50:26.226Z,10.40
2022-09-28T08:51:26.223Z,10.38
2022-09-28T08:52:26.223Z,10.48
2022-09-28T08:53:26.195Z,10.38
2022-09-28T08:54:26.203Z,10.40
2022-09-28T08:55:26.171Z,10.37
2022-09-28T08:56:26.156Z,10.35
2022-09-28T08:57:26.151Z,10.42
2022-09-28T08:58:26.138Z,10.46
2022-09-28T08:59:26.123Z,10.60
2022-09-28T09:00:26.138Z,10.81
2022-09-28T09:01:26.178Z,10.89
2022-09-28T09:02:26.121Z,10.84
2022-09-28T09:03:26.077Z,10.82
2022-09-28T09:04:26.082Z,11.08
2022-09-28T09:05:26.081Z,11.17
2022-09-28T09:06:26.057Z,11.43
2022-09-28T09:07:26.031Z,11.66
2022-09-28T09:08:26.052Z,11.72
2022-09-28T09:09:26.012Z,11.66
2022-09-28T09:10:26.012Z,11.63
2022-09-28T09:11:25.991Z,11.50
2022-09-28T09:12:25.981Z,11.32
2022-09-28T09:13:25.965Z,11.18
2022-09-28T09:14:25.959Z,11.29
2022-09-28T09:15:25.943Z,11.59
2022-09-28T09:16:25.998Z,11.70
2022-09-28T09:17:25.946Z,11.87
2022-09-28T09:18:25.920Z,11.97
2022-09-28T09:19:25.897Z,12.20
2022-09-28T09:20:25.896Z,12.40
2022-09-28T09:21:25.896Z,12.47
2022-09-28T09:22:25.876Z,12.79
2022-09-28T09:23:25.857Z,12.93
2022-09-28T09:24:25.865Z,12.85
2022-09-28T09:25:25.830Z,12.80
2022-09-28T09:26:26.403Z,12.68
2022-09-28T09:27:25.837Z,12.58
2022-09-28T09:28:25.813Z,12.73
2022-09-28T09:29:25.790Z,12.80
2022-09-28T09:30:28.505Z,12.67
2022-09-28T09:31:25.950Z,12.62
2022-09-28T09:32:25.763Z,12.47
2022-09-28T09:33:25.747Z,12.43
2022-09-28T09:34:25.739Z,12.28
2022-09-28T09:35:29.554Z,12.27
2022-09-28T09:36:26.817Z,12.31
2022-09-28T09:37:25.726Z,12.42
2022-09-28T09:38:25.703Z,12.67
2022-09-28T09:39:25.700Z,12.72
2022-09-28T09:40:25.734Z,12.91
2022-09-28T09:41:25.665Z,13.12
2022-09-28T09:42:25.648Z,13.30
2022-09-28T09:43:28.075Z,13.30
2022-09-28T09:44:26.639Z,13.33
2022-09-28T09:45:25.613Z,13.37
2022-09-28T09:46:25.651Z,13.33
2022-09-28T09:47:25.592Z,13.15
2022-09-28T09:48:25.578Z,13.13
2022-09-28T09:49:25.765Z,13.08
2022-09-28T09:50:25.554Z,12.93
2022-09-28T09:51:25.540Z,12.68
2022-09-28T09:52:25.559Z,12.46
2022-09-28T09:53:25.538Z,12.46
2022-09-28T09:54:25.523Z,12.46
2022-09-28T09:55:29.939Z,12.29
2022-09-28T09:56:25.525Z,12.28
2022-09-28T09:57:25.486Z,12.39
2022-09-28T09:58:25.471Z,12.58
2022-09-28T09:59:25.469Z,12.82
2022-09-28T10:00:25.464Z,12.80
2022-09-28T10:01:25.468Z,12.67
2022-09-28T10:02:25.495Z,12.49
2022-09-28T10:03:25.412Z,12.46
2022-09-28T10:04:25.416Z,12.45
2022-09-28T10:05:25.399Z,12.39
2022-09-28T10:06:25.382Z,12.62
2022-09-28T10:07:25.375Z,12.76
2022-09-28T10:08:25.353Z,13.00
2022-09-28T10:09:25.356Z,13.13
2022-09-28T10:10:25.338Z,13.31
2022-09-28T10:11:25.321Z,13.41
2022-09-28T10:12:25.344Z,13.38
2022-09-28T10:13:25.310Z,13.53
2022-09-28T10:14:25.289Z,13.57
2022-09-28T10:15:25.299Z,13.83
2022-09-28T10:16:25.310Z,13.68
2022-09-28T10:17:25.257Z,13.70
2022-09-28T10:18:25.246Z,13.81
2022-09-28T10:19:25.230Z,13.92
2022-09-28T10:20:25.226Z,14.17
2022-09-28T10:21:25.220Z,14.12
2022-09-28T10:22:25.209Z,14.15
2022-09-28T10:23:25.185Z,14.30
2022-09-28T10:24:25.181Z,14.36
2022-09-28T10:25:25.163Z,14.32
2022-09-28T10:26:25.484Z,14.25
2022-09-28T10:27:25.143Z,14.07
2022-09-28T10:28:25.169Z,13.95
2022-09-28T10:29:25.115Z,13.72
2022-09-28T10:30:25.121Z,13.68
2022-09-28T10:31:25.119Z,13.68
2022-09-28T10:32:25.097Z,13.53
2022-09-28T10:33:25.077Z,13.39
2022-09-28T10:34:25.073Z,13.31
2022-09-28T10:35:25.059Z,13.23
2022-09-28T10:36:25.044Z,13.23
2022-09-28T10:37:25.044Z,13.15
2022-09-28T10:38:25.025Z,13.20
2022-09-28T10:39:25.016Z,13.50
2022-09-28T10:40:25.017Z,13.63
2022-09-28T10:41:24.984Z,13.90
2022-09-28T10:42:25.000Z,13.99
2022-09-28T10:43:24.965Z,14.18
2022-09-28T10:44:24.973Z,14.04
2022-09-28T10:45:24.944Z,13.93
2022-09-28T10:46:25.025Z,13.89
2022-09-28T10:47:24.953Z,13.77
2022-09-28T10:48:24.916Z,13.78
2022-09-28T10:49:24.909Z,13.79
2022-09-28T10:50:24.894Z,13.68
2022-09-28T10:51:24.881Z,13.65
2022-09-28T10:52:24.869Z,13.63
2022-09-28T10:53:24.860Z,13.62
2022-09-28T10:54:24.845Z,13.59
2022-09-28T10:55:24.831Z,13.65
2022-09-28T10:56:24.828Z,13.68
2022-09-28T10:57:24.810Z,13.65
2022-09-28T10:58:24.821Z,13.65
2022-09-28T10:59:24.786Z,13.53
2022-09-28T11:00:24.911Z,13.59
2022-09-28T11:01:24.858Z,13.62
2022-09-28T11:02:24.823Z,13.65
2022-09-28T11:03:24.773Z,13.60
2022-09-28T11:04:24.731Z,13.62
2022-09-28T11:05:24.723Z,13.70
2022-09-28T11:06:24.710Z,13.75
2022-09-28T11:07:24.698Z,13.68
2022-09-28T11:08:24.714Z,13.78
2022-09-28T11:09:28.470Z,13.68
2022-09-28T11:10:25.658Z,13.81
2022-09-28T11:11:24.656Z,13.70
2022-09-28T11:12:24.636Z,13.59
2022-09-28T11:13:24.629Z,13.42
2022-09-28T11:14:24.627Z,13.38
2022-09-28T11:15:24.627Z,13.35
2022-09-28T11:16:24.683Z,13.31
2022-09-28T11:17:24.589Z,13.33
2022-09-28T11:18:24.579Z,13.20
2022-09-28T11:19:24.575Z,13.30
2022-09-28T11:20:27.354Z,13.25
2022-09-28T11:21:24.560Z,13.18
2022-09-28T11:22:24.527Z,13.30
2022-09-28T11:23:24.535Z,13.22
2022-09-28T11:24:24.800Z,13.28
2022-09-28T11:25:24.501Z,13.15
2022-09-28T11:26:24.499Z,13.15
2022-09-28T11:27:24.478Z,13.28
2022-09-28T11:28:24.469Z,13.22
2022-09-28T11:29:24.457Z,13.25
2022-09-28T11:30:24.517Z,13.13
2022-09-28T11:31:24.462Z,13.22
2022-09-28T11:32:24.435Z,13.25
2022-09-28T11:33:24.413Z,13.13
2022-09-28T11:34:36.227Z,13.11
2022-09-28T11:35:25.387Z,13.20
2022-09-28T11:36:24.375Z,13.15
2022-09-28T11:37:24.397Z,13.15
2022-09-28T11:38:24.362Z,13.16
2022-09-28T11:39:24.354Z,13.23
2022-09-28T11:40:24.402Z,13.16
2022-09-28T11:41:24.333Z,13.13
2022-09-28T11:42:24.311Z,13.09
2022-09-28T11:43:24.333Z,13.15
2022-09-28T11:44:26.961Z,13.11
2022-09-28T11:45:24.287Z,13.16
2022-09-28T11:46:24.344Z,13.23
2022-09-28T11:47:24.253Z,13.20
2022-09-28T11:48:24.259Z,13.16
2022-09-28T11:49:24.247Z,13.19
2022-09-28T11:50:24.824Z,13.23
2022-09-28T11:51:24.247Z,13.11
2022-09-28T11:52:24.243Z,13.16
2022-09-28T11:53:24.279Z,13.11
2022-09-28T11:54:24.167Z,13.12
2022-09-28T11:55:24.164Z,13.01
2022-09-28T11:56:24.166Z,13.12
2022-09-28T11:57:24.142Z,13.15
2022-09-28T11:58:24.124Z,13.19
2022-09-28T11:59:24.138Z,13.31
2022-09-28T12:00:24.129Z,13.13
2022-09-28T12:01:24.099Z,13.19
2022-09-28T12:02:24.194Z,13.27
2022-09-28T12:03:24.242Z,13.28
2022-09-28T12:04:24.105Z,13.39
2022-09-28T12:05:24.048Z,13.47
2022-09-28T12:06:24.044Z,13.63
2022-09-28T12:07:24.029Z,13.67
2022-09-28T12:08:24.012Z,13.71
2022-09-28T12:09:24.041Z,13.81
2022-09-28T12:10:24.008Z,13.75
2022-09-28T12:11:24.050Z,13.79
2022-09-28T12:12:23.968Z,13.78
2022-09-28T12:13:23.966Z,13.68
2022-09-28T12:14:23.963Z,13.70
2022-09-28T12:15:23.944Z,13.67
2022-09-28T12:16:53.154Z,13.65
2022-09-28T12:17:25.017Z,13.68
2022-09-28T12:18:23.909Z,13.68
2022-09-28T12:19:23.899Z,13.74
2022-09-28T12:20:23.901Z,13.81
2022-09-28T12:21:23.874Z,13.77
2022-09-28T12:22:23.875Z,13.71
2022-09-28T12:23:23.866Z,13.71
2022-09-28T12:24:23.844Z,13.81
2022-09-28T12:25:23.835Z,13.81
2022-09-28T12:26:23.816Z,13.85
2022-09-28T12:27:23.840Z,14.07
2022-09-28T12:28:23.793Z,14.20
2022-09-28T12:29:23.798Z,14.37
2022-09-28T12:30:23.777Z,14.40
2022-09-28T12:31:23.859Z,14.55
2022-09-28T12:32:23.757Z,14.55
2022-09-28T12:33:23.755Z,14.81
2022-09-28T12:34:23.720Z,15.10
2022-09-28T12:35:23.719Z,15.22
2022-09-28T12:36:23.723Z,15.25
2022-09-28T12:37:23.693Z,15.31
2022-09-28T12:38:23.691Z,15.36
2022-09-28T12:39:35.710Z,15.39
2022-09-28T12:40:24.704Z,15.37
2022-09-28T12:41:23.651Z,15.31
2022-09-28T12:42:23.656Z,15.37
2022-09-28T12:43:23.650Z,15.28
2022-09-28T12:44:23.628Z,15.21
2022-09-28T12:45:23.604Z,15.28
2022-09-28T12:46:23.643Z,15.37
2022-09-28T12:47:23.588Z,15.42
2022-09-28T12:48:23.571Z,15.27
2022-09-28T12:50:13.747Z,15.27
2022-09-28T12:50:44.024Z,15.22
2022-09-28T12:51:24.543Z,15.28
2022-09-28T12:52:23.550Z,15.21
2022-09-28T12:53:23.518Z,15.28
2022-09-28T12:54:23.559Z,15.33
2022-09-28T12:55:23.495Z,15.37
2022-09-28T12:56:23.487Z,15.42
2022-09-28T12:57:23.487Z,15.24
2022-09-28T12:58:23.499Z,15.25
2022-09-28T12:59:23.470Z,15.19
2022-09-28T13:00:23.443Z,15.19
2022-09-28T13:01:23.503Z,15.06
2022-09-28T13:02:23.498Z,15.04
2022-09-28T13:03:23.426Z,15.11
2022-09-28T13:04:23.401Z,15.15
2022-09-28T13:05:23.390Z,15.28
2022-09-28T13:06:23.373Z,15.22
2022-09-28T13:07:23.364Z,15.42
2022-09-28T13:08:23.382Z,15.37